createdAt,value
2022-12-03T00:02:43.112Z,12.10
2022-12-03T00:05:30.993Z,10.97
2022-12-03T00:08:18.451Z,14.03
2022-12-03T00:11:06.440Z,10.77
2022-12-03T00:13:54.251Z,11.87
2022-12-03T00:16:41.676Z,12.13
2022-12-03T00:19:29.494Z,12.03
2022-12-03T00:22:16.719Z,11.73
2022-12-03T00:25:04.814Z,12.57
2022-12-03T00:27:52.125Z,12.77
2022-12-03T00:30:40.204Z,11.93
2022-12-03T00:33:27.656Z,13.03
2022-12-03T00:36:15.461Z,13.90
2022-12-03T00:39:03.165Z,12.00
2022-12-03T00:41:50.990Z,12.10
2022-12-03T00:44:38.420Z,12.50
2022-12-03T00:47:26.372Z,12.63
2022-12-03T00:50:14.379Z,12.10
2022-12-03T00:53:01.685Z,11.43
2022-12-03T00:55:51.134Z,12.07
2022-12-03T00:58:39.011Z,11.67
2022-12-03T01:01:26.464Z,12.23
2022-12-03T01:04:14.330Z,11.50
2022-12-03T01:07:02.045Z,12.07
2022-12-03T01:09:49.953Z,11.53
2022-12-03T01:12:37.712Z,11.60
2022-12-03T01:15:25.023Z,11.33
2022-12-03T01:18:12.825Z,12.73
2022-12-03T01:21:00.631Z,10.43
2022-12-03T01:23:48.090Z,11.73
2022-12-03T01:26:35.875Z,12.77
2022-12-03T01:29:23.102Z,11.53
2022-12-03T01:32:17.483Z,11.10
2022-12-03T01:35:05.257Z,11.27
2022-12-03T01:37:53.161Z,11.00
2022-12-03T01:40:41.134Z,11.87
2022-12-03T01:43:28.507Z,11.37
2022-12-03T01:46:19.915Z,11.00
2022-12-03T01:49:08.375Z,11.23
2022-12-03T01:51:56.256Z,10.90
2022-12-03T01:54:47.670Z,10.13
2022-12-03T01:57:43.296Z,12.00
2022-12-03T02:00:32.127Z,11.10
2022-12-03T02:03:22.493Z,9.83
2022-12-03T02:06:13.242Z,10.20
2022-12-03T02:09:01.318Z,10.83
2022-12-03T02:11:50.725Z,11.43
2022-12-03T02:14:38.531Z,10.57
2022-12-03T02:17:27.019Z,9.43
2022-12-03T02:20:14.796Z,9.47
2022-12-03T02:23:05.572Z,10.17
2022-12-03T02:25:53.367Z,10.60
2022-12-03T02:28:41.267Z,11.37
2022-12-03T02:31:29.079Z,10.00
2022-12-03T02:34:35.480Z,9.97
2022-12-03T02:37:28.446Z,10.30
2022-12-03T02:40:18.308Z,10.67
2022-12-03T02:43:06.066Z,9.60
2022-12-03T02:45:56.051Z,11.00
2022-12-03T02:48:43.468Z,10.43
2022-12-03T02:51:31.273Z,10.60
2022-12-03T02:54:18.775Z,10.77
2022-12-03T02:57:06.375Z,10.80
2022-12-03T02:59:54.317Z,9.40
2022-12-03T03:02:42.520Z,11.47
2022-12-03T03:05:29.900Z,10.00
2022-12-03T03:08:18.429Z,10.27
2022-12-03T03:11:06.427Z,9.93
2022-12-03T03:13:54.448Z,10.60
2022-12-03T03:16:42.372Z,10.27
2022-12-03T03:19:30.614Z,12.47
2022-12-03T03:22:18.449Z,9.83
2022-12-03T03:25:07.315Z,10.13
2022-12-03T03:27:54.666Z,10.30
2022-12-03T03:30:43.344Z,10.80
2022-12-03T03:33:31.422Z,10.43
2022-12-03T03:36:19.460Z,9.93
2022-12-03T03:39:07.238Z,11.20
2022-12-03T03:41:54.615Z,10.90
2022-12-03T03:44:42.567Z,11.30
2022-12-03T03:47:29.923Z,10.27
2022-12-03T03:50:18.265Z,9.27
2022-12-03T03:53:06.600Z,9.97
2022-12-03T03:55:53.946Z,10.17
2022-12-03T03:58:41.890Z,11.47
2022-12-03T04:01:29.850Z,9.77
2022-12-03T04:04:22.517Z,9.17
2022-12-03T04:07:10.498Z,10.70
2022-12-03T04:09:57.848Z,10.00
2022-12-03T04:12:57.838Z,9.90
2022-12-03T04:15:45.176Z,11.27
2022-12-03T04:18:45.185Z,10.47
2022-12-03T04:21:51.056Z,9.83
2022-12-03T04:24:38.937Z,9.83
2022-12-03T04:27:44.830Z,9.80
2022-12-03T04:30:32.675Z,9.53
2022-12-03T04:33:52.375Z,10.50
2022-12-03T04:36:40.157Z,9.70
2022-12-03T04:39:27.486Z,10.30
2022-12-03T04:42:15.369Z,11.07
2022-12-03T04:45:02.783Z,9.80
2022-12-03T04:47:50.570Z,9.30
2022-12-03T04:50:37.871Z,9.50
2022-12-03T04:53:25.665Z,10.20
2022-12-03T04:56:12.963Z,8.97
2022-12-03T04:59:00.834Z,9.63
2022-12-03T05:01:48.717Z,9.87
2022-12-03T05:04:36.727Z,9.03
2022-12-03T05:07:24.554Z,9.70
2022-12-03T05:10:12.487Z,9.73
2022-12-03T05:13:00.280Z,8.97
2022-12-03T05:15:48.113Z,8.67
2022-12-03T05:18:35.386Z,9.13
2022-12-03T05:21:23.371Z,9.53
2022-12-03T05:24:11.319Z,8.97
2022-12-03T05:26:58.671Z,9.37
2022-12-03T05:29:46.464Z,10.13
2022-12-03T05:32:33.744Z,9.40
2022-12-03T05:35:21.617Z,9.47
2022-12-03T05:38:08.949Z,9.47
2022-12-03T05:40:56.296Z,9.67
2022-12-03T05:43:43.630Z,9.43
2022-12-03T05:46:31.921Z,9.67
2022-12-03T05:49:19.436Z,8.83
2022-12-03T05:52:07.063Z,9.80
2022-12-03T05:54:54.619Z,9.57
2022-12-03T05:57:42.486Z,9.47
2022-12-03T06:00:31.276Z,9.17
2022-12-03T06:03:18.771Z,10.27
2022-12-03T06:06:06.357Z,8.97
2022-12-03T06:08:54.217Z,9.17
2022-12-03T06:11:41.500Z,9.57
2022-12-03T06:14:30.676Z,9.40
2022-12-03T06:17:18.108Z,9.97
2022-12-03T06:20:05.634Z,9.47
2022-12-03T06:22:53.435Z,9.00
2022-12-03T06:25:40.756Z,9.37
2022-12-03T06:28:28.569Z,9.40
2022-12-03T06:31:16.023Z,10.50
2022-12-03T06:34:04.021Z,10.07
2022-12-03T06:36:51.522Z,9.90
2022-12-03T06:39:39.428Z,9.63
2022-12-03T06:42:26.784Z,9.97
2022-12-03T06:45:14.182Z,10.57
2022-12-03T06:48:02.026Z,10.00
2022-12-03T06:50:49.401Z,10.70
2022-12-03T06:53:37.329Z,10.03
2022-12-03T06:56:25.135Z,10.40
2022-12-03T06:59:14.283Z,11.67
2022-12-03T07:02:02.370Z,11.17
2022-12-03T07:04:49.813Z,10.50
2022-12-03T07:07:37.331Z,11.23
2022-12-03T07:10:24.761Z,9.87
2022-12-03T07:13:12.227Z,10.43
2022-12-03T07:16:00.096Z,10.00
2022-12-03T07:18:48.002Z,12.80
2022-12-03T07:21:35.607Z,11.27
2022-12-03T07:24:25.581Z,12.50
2022-12-03T07:27:13.809Z,11.63
2022-12-03T07:30:01.889Z,11.20
2022-12-03T07:32:52.567Z,12.53
2022-12-03T07:35:46.847Z,12.47
2022-12-03T07:38:36.851Z,11.93
2022-12-03T07:41:24.413Z,9.97
2022-12-03T07:44:14.782Z,10.80
2022-12-03T07:47:02.406Z,10.40
2022-12-03T07:49:49.883Z,10.87
2022-12-03T07:52:37.732Z,11.57
2022-12-03T07:55:25.980Z,12.30
2022-12-03T07:58:13.310Z,12.37
2022-12-03T08:01:00.924Z,12.67
2022-12-03T08:03:48.427Z,11.23
2022-12-03T08:06:35.841Z,9.17
2022-12-03T08:09:24.341Z,10.90
2022-12-03T08:12:19.360Z,10.77
2022-12-03T08:15:14.962Z,11.40
2022-12-03T08:18:21.507Z,11.83
2022-12-03T08:21:11.965Z,11.53
2022-12-03T08:23:59.465Z,10.40
2022-12-03T08:26:49.243Z,11.67
2022-12-03T08:29:37.144Z,10.90
2022-12-03T08:32:24.754Z,10.80
2022-12-03T08:35:38.287Z,11.00
2022-12-03T08:38:26.159Z,10.33
2022-12-03T08:41:15.514Z,11.37
2022-12-03T08:44:11.991Z,10.63
2022-12-03T08:47:20.724Z,11.53
2022-12-03T08:50:24.133Z,11.87
2022-12-03T08:53:14.713Z,10.67
2022-12-03T08:56:04.003Z,11.00
2022-12-03T08:58:56.114Z,11.67
2022-12-03T09:01:45.558Z,10.67
2022-12-03T09:04:48.822Z,10.30
2022-12-03T09:07:43.073Z,9.43
2022-12-03T09:10:30.558Z,9.93
2022-12-03T09:13:17.990Z,10.37
2022-12-03T09:16:05.729Z,10.10
2022-12-03T09:18:53.371Z,9.93
2022-12-03T09:21:41.740Z,10.57
2022-12-03T09:24:29.065Z,11.23
2022-12-03T09:27:16.381Z,10.30
2022-12-03T09:30:04.065Z,11.23
2022-12-03T09:32:51.412Z,11.17
2022-12-03T09:35:38.718Z,11.87
2022-12-03T09:38:26.242Z,10.77
2022-12-03T09:41:13.801Z,9.53
2022-12-03T09:44:04.713Z,10.00
2022-12-03T09:46:53.121Z,10.43
2022-12-03T09:49:41.266Z,9.97
2022-12-03T09:52:29.735Z,10.00
2022-12-03T09:55:22.870Z,10.50
2022-12-03T09:58:16.140Z,10.53
2022-12-03T10:01:03.747Z,10.40
2022-12-03T10:03:52.402Z,11.07
2022-12-03T10:06:45.520Z,10.63
2022-12-03T10:09:33.766Z,10.50
2022-12-03T10:12:23.754Z,11.60
2022-12-03T10:15:15.523Z,10.83
2022-12-03T10:18:12.815Z,9.80
2022-12-03T10:21:00.281Z,10.77
2022-12-03T10:23:50.783Z,9.70
2022-12-03T10:26:41.329Z,10.07
2022-12-03T10:29:34.098Z,9.50
2022-12-03T10:32:28.190Z,9.90
2022-12-03T10:35:20.755Z,10.27
2022-12-03T10:38:20.228Z,10.37
2022-12-03T10:41:28.086Z,10.07
2022-12-03T10:44:17.694Z,10.53
2022-12-03T10:47:06.910Z,10.20
2022-12-03T10:50:02.952Z,9.83
2022-12-03T10:52:50.279Z,11.33
2022-12-03T10:55:39.434Z,9.60
2022-12-03T10:58:32.418Z,8.53
2022-12-03T11:01:22.310Z,10.23
2022-12-03T11:04:15.933Z,9.90
2022-12-03T11:07:04.425Z,10.70
2022-12-03T11:09:58.790Z,10.07
2022-12-03T11:13:04.904Z,9.60
2022-12-03T11:15:53.046Z,9.77
2022-12-03T11:18:41.003Z,9.50
2022-12-03T11:21:31.338Z,9.40
2022-12-03T11:24:21.652Z,9.47
2022-12-03T11:27:09.101Z,10.10
2022-12-03T11:30:00.398Z,8.70
2022-12-03T11:32:47.856Z,8.60
2022-12-03T11:35:36.725Z,10.27
2022-12-03T11:38:40.906Z,10.43
2022-12-03T11:41:30.175Z,10.00
2022-12-03T11:44:31.651Z,10.87
2022-12-03T11:47:19.497Z,10.20
2022-12-03T11:50:26.072Z,9.77
2022-12-03T11:53:16.512Z,10.30
2022-12-03T11:56:12.952Z,9.87
2022-12-03T11:59:01.865Z,10.10
2022-12-03T12:01:50.551Z,9.97
2022-12-03T12:04:38.183Z,9.43
2022-12-03T12:07:34.302Z,11.07
2022-12-03T12:10:40.892Z,10.43
2022-12-03T12:13:48.756Z,11.83
2022-12-03T12:16:42.605Z,11.83
2022-12-03T12:19:30.370Z,11.80
2022-12-03T12:22:19.724Z,12.27
2022-12-03T12:25:27.687Z,11.57
2022-12-03T12:28:15.167Z,11.33
2022-12-03T12:31:03.127Z,12.27
2022-12-03T12:33:50.496Z,12.17
2022-12-03T12:36:37.800Z,11.97
2022-12-03T12:39:27.132Z,11.57
2022-12-03T12:42:30.491Z,12.07
2022-12-03T12:45:20.000Z,9.67
2022-12-03T12:48:10.410Z,11.30
2022-12-03T12:51:02.374Z,12.63
2022-12-03T12:53:50.562Z,11.57
2022-12-03T12:56:39.325Z,11.10
2022-12-03T12:59:26.575Z,11.80
2022-12-03T13:02:35.988Z,9.83
2022-12-03T13:05:24.729Z,10.80
2022-12-03T13:08:28.045Z,10.90
2022-12-03T13:11:18.453Z,10.63
2022-12-03T13:14:14.558Z,10.23
2022-12-03T13:17:02.978Z,10.23
2022-12-03T13:19:58.201Z,10.83
2022-12-03T13:22:51.283Z,10.57
2022-12-03T13:26:00.282Z,10.80
2022-12-03T13:28:46.019Z,10.83
2022-12-03T13:31:41.876Z,11.23
2022-12-03T13:34:35.768Z,11.73
2022-12-03T13:37:24.685Z,12.00
2022-12-03T13:40:15.432Z,10.90
2022-12-03T13:43:11.779Z,11.97
2022-12-03T13:45:59.633Z,11.97
2022-12-03T13:48:48.028Z,12.23
2022-12-03T13:51:35.888Z,11.23
2022-12-03T13:54:27.295Z,11.77
2022-12-03T13:57:14.678Z,10.70
2022-12-03T14:00:02.090Z,11.13
2022-12-03T14:02:49.551Z,12.03
2022-12-03T14:05:37.630Z,12.37
2022-12-03T14:08:25.005Z,10.93
2022-12-03T14:11:32.721Z,11.27
2022-12-03T14:14:20.218Z,10.80
2022-12-03T14:17:09.965Z,11.97
2022-12-03T14:19:57.879Z,10.13
2022-12-03T14:22:45.742Z,11.00
2022-12-03T14:25:33.625Z,12.37
2022-12-03T14:28:21.526Z,12.47
2022-12-03T14:31:08.961Z,11.93
2022-12-03T14:33:56.418Z,11.23
2022-12-03T14:36:44.296Z,11.47
2022-12-03T14:39:32.136Z,11.43
2022-12-03T14:42:19.553Z,10.83
2022-12-03T14:45:07.261Z,12.03
2022-12-03T14:47:54.658Z,11.57
2022-12-03T14:50:42.597Z,13.50
2022-12-03T14:53:30.520Z,13.13
2022-12-03T14:56:17.981Z,12.03
2022-12-03T14:59:05.875Z,11.33
2022-12-03T15:01:53.356Z,11.47
2022-12-03T15:04:41.897Z,11.27
2022-12-03T15:07:29.872Z,9.80
2022-12-03T15:10:17.300Z,10.03
2022-12-03T15:13:05.170Z,10.57
2022-12-03T15:15:52.582Z,10.73
2022-12-03T15:18:39.972Z,11.07
2022-12-03T15:21:28.627Z,10.40
2022-12-03T15:24:16.026Z,10.10
2022-12-03T15:27:03.746Z,10.97
2022-12-03T15:29:51.557Z,10.43
2022-12-03T15:32:39.128Z,10.63
2022-12-03T15:35:26.515Z,11.30
2022-12-03T15:38:14.466Z,11.87
2022-12-03T15:41:21.187Z,11.03
2022-12-03T15:44:09.090Z,11.87
2022-12-03T15:46:56.470Z,9.67
2022-12-03T15:52:26.812Z,9.80
2022-12-03T15:57:59.911Z,11.83
2022-12-03T16:00:47.275Z,10.67
2022-12-03T16:03:35.090Z,11.60
2022-12-03T16:06:22.940Z,10.70
2022-12-03T16:09:10.505Z,10.60
2022-12-03T16:11:58.380Z,12.23
2022-12-03T16:14:46.060Z,12.63
2022-12-03T16:17:33.944Z,12.33
2022-12-03T16:20:21.113Z,12.17
2022-12-03T16:23:10.157Z,12.37
2022-12-03T16:25:57.563Z,13.10
2022-12-03T16:28:45.399Z,13.97
2022-12-03T16:31:32.741Z,13.13
2022-12-03T16:34:20.512Z,13.30
2022-12-03T16:37:08.243Z,12.53
2022-12-03T16:39:56.330Z,12.70
2022-12-03T16:42:44.367Z,12.77
2022-12-03T16:46:00.768Z,13.73
2022-12-03T16:48:49.275Z,12.53
2022-12-03T16:51:36.611Z,13.23
2022-12-03T16:54:24.368Z,14.17
2022-12-03T16:57:12.239Z,13.07
2022-12-03T17:00:01.388Z,12.10
2022-12-03T17:02:49.438Z,11.40
2022-12-03T17:05:36.835Z,10.30
2022-12-03T17:08:24.656Z,12.17
2022-12-03T17:11:12.064Z,11.63
2022-12-03T17:14:00.126Z,11.27
2022-12-03T17:16:47.418Z,11.37
2022-12-03T17:19:35.254Z,11.17
2022-12-03T17:22:22.582Z,11.53
2022-12-03T17:25:10.974Z,11.57
2022-12-03T17:27:58.281Z,11.97
2022-12-03T17:30:46.215Z,12.30
2022-12-03T17:33:34.207Z,10.57
2022-12-03T17:36:21.728Z,11.70
2022-12-03T17:39:09.603Z,12.77
2022-12-03T17:41:57.387Z,12.20
2022-12-03T17:44:44.675Z,12.37
2022-12-03T17:47:32.519Z,11.77
2022-12-03T17:50:19.848Z,11.83
2022-12-03T17:53:10.786Z,13.63
2022-12-03T17:55:58.037Z,12.63
2022-12-03T17:58:45.859Z,12.17
2022-12-03T18:01:33.732Z,12.93
2022-12-03T18:04:21.678Z,14.03
2022-12-03T18:07:09.458Z,15.87
2022-12-03T18:09:57.560Z,13.73
2022-12-03T18:12:45.553Z,13.50
2022-12-03T18:15:33.022Z,14.30
2022-12-03T18:18:20.805Z,14.23
2022-12-03T18:21:08.451Z,13.07
2022-12-03T18:23:56.996Z,12.80
2022-12-03T18:26:44.362Z,14.57
2022-12-03T18:29:32.102Z,12.50
2022-12-03T18:32:29.175Z,13.47
2022-12-03T18:35:17.654Z,14.37
2022-12-03T18:38:05.135Z,13.87
2022-12-03T18:40:54.460Z,11.80
2022-12-03T18:43:43.522Z,13.77
2022-12-03T18:46:52.436Z,13.90
2022-12-03T18:49:38.703Z,12.83
2022-12-03T18:52:26.045Z,13.83
2022-12-03T18:55:18.942Z,14.30
2022-12-03T18:58:06.272Z,12.93
2022-12-03T19:00:54.066Z,13.43
2022-12-03T19:03:41.831Z,13.63
2022-12-03T19:06:30.461Z,11.93
2022-12-03T19:09:18.515Z,12.90
2022-12-03T19:12:11.272Z,12.97
2022-12-03T19:15:02.268Z,12.80
2022-12-03T19:17:49.856Z,12.97
2022-12-03T19:20:40.472Z,12.53
2022-12-03T19:23:27.737Z,12.13
2022-12-03T19:26:15.912Z,12.67
2022-12-03T19:29:03.338Z,13.27
2022-12-03T19:31:52.033Z,13.37
2022-12-03T19:34:39.722Z,13.67
2022-12-03T19:37:27.531Z,13.17
2022-12-03T19:40:15.781Z,12.83
2022-12-03T19:43:03.190Z,12.50
2022-12-03T19:45:50.999Z,12.97
2022-12-03T19:48:42.038Z,12.67
2022-12-03T19:51:35.134Z,11.83
2022-12-03T19:54:24.054Z,12.63
2022-12-03T19:57:11.839Z,13.50
2022-12-03T19:59:59.284Z,11.67
2022-12-03T20:02:49.376Z,10.97
2022-12-03T20:05:38.305Z,12.50
2022-12-03T20:08:26.083Z,12.60
2022-12-03T20:11:15.511Z,12.70
2022-12-03T20:14:05.026Z,11.17
2022-12-03T20:16:52.916Z,12.87
2022-12-03T20:19:40.345Z,11.50
2022-12-03T20:22:27.571Z,13.07
2022-12-03T20:25:15.035Z,12.23
2022-12-03T20:28:02.373Z,12.27
2022-12-03T20:31:02.810Z,11.63
2022-12-03T20:33:52.279Z,12.87
2022-12-03T20:36:40.390Z,12.07
2022-12-03T20:39:28.152Z,10.67
2022-12-03T20:42:15.534Z,11.73
2022-12-03T20:45:02.834Z,11.57
2022-12-03T20:47:50.118Z,12.33
2022-12-03T20:50:40.410Z,12.40
2022-12-03T20:53:27.694Z,13.83
2022-12-03T20:56:20.326Z,11.47
2022-12-03T20:59:08.935Z,12.40
2022-12-03T21:01:56.372Z,10.57
2022-12-03T21:04:44.338Z,12.13
2022-12-03T21:07:31.744Z,12.30
2022-12-03T21:10:45.057Z,11.87
2022-12-03T21:13:32.629Z,11.97
2022-12-03T21:16:39.331Z,14.00
2022-12-03T21:19:29.809Z,12.90
2022-12-03T21:22:18.242Z,12.27
2022-12-03T21:25:06.181Z,12.30
2022-12-03T21:27:54.996Z,14.17
2022-12-03T21:30:42.365Z,12.60
2022-12-03T21:33:30.560Z,12.83
2022-12-03T21:36:18.064Z,12.43
2022-12-03T21:39:05.853Z,13.57
2022-12-03T21:42:22.172Z,12.67
2022-12-03T21:45:00.564Z,11.03
2022-12-03T21:47:48.404Z,11.93
2022-12-03T21:50:36.331Z,11.57
2022-12-03T21:53:24.323Z,12.67
2022-12-03T21:56:20.769Z,11.40
2022-12-03T21:59:08.061Z,12.80
2022-12-03T22:01:55.996Z,12.13
2022-12-03T22:04:43.874Z,11.53
2022-12-03T22:07:24.418Z,12.13
2022-12-03T22:10:12.665Z,12.90
2022-12-03T22:13:00.533Z,13.17
2022-12-03T22:15:48.436Z,12.83
2022-12-03T22:18:36.049Z,13.23
2022-12-03T22:21:25.836Z,13.00
2022-12-03T22:24:13.549Z,11.57
2022-12-03T22:27:01.943Z,12.83
2022-12-03T22:29:49.651Z,12.90
2022-12-03T22:32:37.027Z,12.13
2022-12-03T22:35:24.421Z,12.17
2022-12-03T22:38:12.276Z,13.17
2022-12-03T22:41:00.422Z,11.10
2022-12-03T22:43:48.068Z,12.37
2022-12-03T22:46:36.076Z,11.50
2022-12-03T22:49:23.401Z,12.13
2022-12-03T22:52:11.310Z,11.23
2022-12-03T22:54:58.549Z,11.90
2022-12-03T22:57:46.220Z,12.27
2022-12-03T23:00:35.447Z,11.20
2022-12-03T23:03:22.666Z,12.27
2022-12-03T23:06:13.626Z,12.80
2022-12-03T23:09:01.133Z,12.27
2022-12-03T23:11:49.032Z,12.07
2022-12-03T23:14:36.728Z,11.90
2022-12-03T23:17:24.653Z,12.97
2022-12-03T23:20:12.288Z,13.17
2022-12-03T23:22:59.957Z,11.30
2022-12-03T23:26:07.451Z,11.87
2022-12-03T23:28:54.989Z,11.73
2022-12-03T23:31:42.910Z,12.83
2022-12-03T23:34:30.840Z,12.00
2022-12-03T23:37:18.264Z,12.87
2022-12-03T23:40:06.541Z,12.53
2022-12-03T23:42:53.955Z,10.93
2022-12-03T23:45:41.358Z,12.27
2022-12-03T23:48:29.695Z,11.97
2022-12-03T23:51:19.246Z,11.50
2022-12-03T23:54:07.049Z,12.00
2022-12-03T23:56:54.710Z,11.70
2022-12-03T23:59:42.139Z,12.20
